Time;durP1;ratioP1;P1;durP2;ratioP2;P2;SDS_P1;SDS_P2;PMS_P1;PMS_P2;Temp;Humidity;BMP_temperature;BMP_pressure;BME280_temperature;BME280_humidity;BME280_pressure;Samples;Min_cycle;Max_cycle;Signal;HPM_P1;HPM_P2
2022/10/05 00:01:00;;;;;;;6.43;5.50;;;8.00;99.90;;;;;;8367249;28;20372;-68
2022/10/05 00:05:04;;;;;;;8.07;4.87;;;8.00;99.90;;;;;;8371276;28;20209;-68
2022/10/05 00:09:19;;;;;;;8.27;4.67;;;8.00;99.90;;;;;;8373487;28;20235;-68
2022/10/05 00:13:22;;;;;;;5.37;4.30;;;8.10;99.90;;;;;;8376457;28;20189;-67
2022/10/05 00:17:26;;;;;;;4.73;4.00;;;8.00;99.90;;;;;;8372443;28;20190;-67
2022/10/05 00:21:28;;;;;;;4.63;4.20;;;8.00;99.90;;;;;;8372739;28;20217;-67
2022/10/05 00:25:29;;;;;;;5.13;4.30;;;7.90;99.90;;;;;;8376438;28;20188;-68
2022/10/05 00:29:29;;;;;;;7.20;4.13;;;7.90;99.90;;;;;;8370696;28;20285;-68
2022/10/05 00:33:30;;;;;;;4.87;3.97;;;7.80;99.90;;;;;;8368704;28;20196;-68
2022/10/05 00:37:31;;;;;;;4.93;4.30;;;7.70;99.90;;;;;;8371898;28;20200;-68
2022/10/05 00:42:00;;;;;;;5.23;4.67;;;7.60;99.90;;;;;;8373855;28;20224;-68
2022/10/05 00:46:11;;;;;;;9.67;6.47;;;7.50;99.90;;;;;;8371531;28;20185;-70
2022/10/05 00:50:24;;;;;;;12.37;7.00;;;7.20;99.90;;;;;;8371512;28;20189;-68
2022/10/05 00:54:41;;;;;;;10.10;7.10;;;6.80;99.90;;;;;;8380085;28;20196;-68
2022/10/05 00:58:57;;;;;;;8.90;6.87;;;6.60;99.90;;;;;;8376066;28;20217;-68
2022/10/05 01:03:05;;;;;;;9.20;6.53;;;6.50;99.90;;;;;;8379087;28;20220;-68
2022/10/05 01:07:16;;;;;;;7.07;5.43;;;6.30;99.90;;;;;;8377232;28;20172;-68
2022/10/05 01:11:49;;;;;;;11.67;7.13;;;6.20;99.90;;;;;;8374269;28;20186;-66
2022/10/05 01:16:03;;;;;;;13.67;7.83;;;6.10;99.90;;;;;;8377641;28;20285;-68
2022/10/05 01:20:24;;;;;;;13.60;6.97;;;6.00;99.90;;;;;;8378845;28;20189;-68
2022/10/05 01:25:15;;;;;;;9.50;6.43;;;5.90;99.90;;;;;;8377857;28;20192;-67
2022/10/05 01:29:34;;;;;;;8.07;6.07;;;5.80;99.90;;;;;;8336902;28;20248;-68
2022/10/05 01:34:03;;;;;;;12.67;8.17;;;5.70;99.90;;;;;;8359549;28;20201;-68
2022/10/05 01:38:25;;;;;;;16.60;8.53;;;5.70;99.90;;;;;;8378103;28;20220;-68
2022/10/05 01:42:29;;;;;;;10.27;7.70;;;5.60;99.90;;;;;;8375042;28;20235;-68
2022/10/05 01:46:46;;;;;;;10.90;7.03;;;5.50;99.90;;;;;;8377835;28;20205;-68
2022/10/05 01:51:02;;;;;;;8.50;6.80;;;5.40;99.90;;;;;;8372311;28;20213;-69
2022/10/05 01:55:17;;;;;;;9.53;5.63;;;5.30;99.90;;;;;;8378916;28;20187;-68
2022/10/05 02:00:00;;;;;;;6.73;4.90;;;5.20;99.90;;;;;;8373376;28;20310;-68
2022/10/05 02:04:26;;;;;;;7.93;4.77;;;5.20;99.90;;;;;;8390750;28;20213;-67
2022/10/05 02:09:00;;;;;;;6.60;5.20;;;5.10;99.90;;;;;;8384249;28;20196;-68
2022/10/05 02:13:09;;;;;;;6.50;4.90;;;5.10;99.90;;;;;;8367590;28;20247;-67
2022/10/05 02:17:18;;;;;;;6.47;5.00;;;5.10;99.90;;;;;;8375863;28;20350;-68
2022/10/05 02:21:20;;;;;;;5.50;4.73;;;5.00;99.90;;;;;;8372451;28;20233;-68
2022/10/05 02:25:30;;;;;;;5.07;4.00;;;5.00;99.90;;;;;;8374089;28;20366;-68
2022/10/05 02:29:35;;;;;;;5.47;3.73;;;5.00;99.90;;;;;;8376694;28;20251;-68
2022/10/05 02:33:36;;;;;;;5.23;4.03;;;5.00;99.90;;;;;;8377687;28;20239;-68
2022/10/05 02:37:49;;;;;;;6.07;4.27;;;5.00;99.90;;;;;;8379729;28;20268;-68
2022/10/05 02:42:06;;;;;;;6.03;4.30;;;5.00;99.90;;;;;;8375300;28;20200;-68
2022/10/05 02:46:18;;;;;;;5.27;4.37;;;5.00;99.90;;;;;;8369418;28;20199;-68
2022/10/05 02:50:36;;;;;;;9.23;6.00;;;5.00;99.90;;;;;;8376236;28;20195;-68
2022/10/05 02:54:52;;;;;;;9.30;5.93;;;5.00;99.90;;;;;;8374118;28;20285;-68
2022/10/05 02:58:56;;;;;;;12.80;8.37;;;5.00;99.90;;;;;;8370808;28;20226;-68
2022/10/05 03:03:16;;;;;;;12.93;9.37;;;5.00;99.90;;;;;;8374340;28;20196;-68
2022/10/05 03:07:28;;;;;;;12.27;9.23;;;5.00;99.90;;;;;;8372752;28;20190;-68
2022/10/05 03:11:48;;;;;;;12.17;8.63;;;5.00;99.90;;;;;;8375462;28;20185;-68
2022/10/05 03:16:07;;;;;;;15.37;9.13;;;5.00;99.90;;;;;;8377695;28;20526;-68
2022/10/05 03:20:23;;;;;;;12.63;8.43;;;4.90;99.90;;;;;;8374153;28;20229;-68
2022/10/05 03:25:01;;;;;;;11.60;7.60;;;4.90;99.90;;;;;;8370372;28;20583;-68
2022/10/05 03:29:34;;;;;;;17.60;10.00;;;4.80;99.90;;;;;;8373741;28;20268;-68
2022/10/05 03:33:51;;;;;;;45.20;17.50;;;4.70;99.90;;;;;;8374960;28;20185;-68
2022/10/05 03:37:55;;;;;;;15.30;8.97;;;4.60;99.90;;;;;;8373048;28;20198;-68
2022/10/05 03:42:19;;;;;;;12.67;8.23;;;4.50;99.90;;;;;;8372763;28;20205;-68
2022/10/05 03:46:34;;;;;;;12.70;7.90;;;4.40;99.90;;;;;;8376005;28;20220;-68
2022/10/05 03:50:58;;;;;;;16.27;10.33;;;4.40;99.90;;;;;;8368631;28;20223;-68
2022/10/05 03:55:25;;;;;;;13.23;7.70;;;4.30;99.90;;;;;;8374017;28;20180;-68
2022/10/05 03:59:31;;;;;;;12.33;7.57;;;4.30;99.90;;;;;;8365352;28;20213;-67
2022/10/05 04:03:35;;;;;;;13.10;8.73;;;4.20;99.90;;;;;;8372675;28;20228;-68
2022/10/05 04:08:05;;;;;;;12.47;7.57;;;4.20;99.90;;;;;;8370789;28;20269;-68
2022/10/05 04:12:22;;;;;;;26.47;15.37;;;4.20;99.90;;;;;;8366795;28;20198;-68
2022/10/05 04:16:45;;;;;;;22.33;13.80;;;4.20;99.90;;;;;;8373037;28;20200;-68
2022/10/05 04:20:51;;;;;;;19.20;9.60;;;4.20;99.90;;;;;;8371672;28;20212;-68
2022/10/05 04:25:05;;;;;;;7.40;6.53;;;4.20;99.90;;;;;;8376093;28;20185;-68
2022/10/05 04:29:37;;;;;;;6.63;5.27;;;4.10;99.90;;;;;;8377891;28;20665;-68
2022/10/05 04:33:37;;;;;;;7.20;5.10;;;3.90;99.90;;;;;;8377350;28;20181;-68
2022/10/05 04:37:48;;;;;;;9.40;5.67;;;3.90;99.90;;;;;;8380181;28;20189;-68
2022/10/05 04:42:30;;;;;;;8.53;5.30;;;3.80;99.90;;;;;;8379716;28;20220;-68
2022/10/05 04:46:52;;;;;;;7.80;5.57;;;3.70;99.90;;;;;;8380191;28;20193;-68
2022/10/05 04:51:11;;;;;;;7.63;5.60;;;3.70;99.90;;;;;;8373981;28;20272;-68
2022/10/05 04:55:21;;;;;;;9.33;6.87;;;3.70;99.90;;;;;;8380655;28;20247;-68
2022/10/05 04:59:28;;;;;;;8.63;6.27;;;3.80;99.90;;;;;;8377820;28;20297;-68
2022/10/05 05:03:41;;;;;;;8.30;6.50;;;3.80;99.90;;;;;;8377456;28;20209;-69
2022/10/05 05:08:06;;;;;;;9.53;6.57;;;3.80;99.90;;;;;;8369942;28;20193;-67
2022/10/05 05:12:22;;;;;;;8.27;6.20;;;3.80;99.90;;;;;;8373617;28;20196;-68
2022/10/05 05:16:44;;;;;;;7.43;5.73;;;3.80;99.90;;;;;;8376192;28;20208;-68
2022/10/05 05:21:01;;;;;;;6.90;5.77;;;3.80;99.90;;;;;;8390056;28;20191;-68
2022/10/05 05:25:41;;;;;;;7.23;5.90;;;3.90;99.90;;;;;;8394613;28;20232;-68
2022/10/05 05:30:12;;;;;;;8.73;6.23;;;3.90;99.90;;;;;;8375309;28;20422;-67
2022/10/05 05:34:31;;;;;;;9.03;6.40;;;4.00;99.90;;;;;;8375670;28;20193;-67
2022/10/05 05:39:07;;;;;;;8.60;6.53;;;4.10;99.90;;;;;;8376434;28;20192;-68
2022/10/05 05:43:25;;;;;;;9.40;6.30;;;4.30;99.90;;;;;;8379724;28;20332;-68
2022/10/05 05:47:34;;;;;;;10.47;6.90;;;4.50;99.90;;;;;;8377843;28;20459;-68
2022/10/05 05:51:41;;;;;;;15.10;8.30;;;4.70;99.90;;;;;;8375346;28;20221;-67
2022/10/05 05:55:52;;;;;;;13.57;9.20;;;4.90;99.90;;;;;;8374847;28;20193;-68
2022/10/05 05:59:52;;;;;;;14.13;9.43;;;5.10;99.90;;;;;;8373242;28;20278;-68
2022/10/05 06:03:53;;;;;;;17.97;10.67;;;5.30;99.90;;;;;;8375444;28;20215;-67
2022/10/05 06:07:57;;;;;;;10.90;7.67;;;5.50;99.90;;;;;;8367821;28;20185;-68
2022/10/05 06:12:20;;;;;;;10.50;7.03;;;5.70;99.90;;;;;;8378959;28;20449;-68
2022/10/05 06:16:30;;;;;;;10.77;7.07;;;5.80;99.90;;;;;;8371698;28;20184;-68
2022/10/05 06:20:34;;;;;;;12.27;8.30;;;6.00;99.90;;;;;;8377619;28;20195;-73
2022/10/05 06:24:37;;;;;;;13.40;7.63;;;6.00;99.90;;;;;;8378973;28;20284;-69
2022/10/05 06:28:38;;;;;;;15.00;7.33;;;6.00;99.90;;;;;;8373767;28;20198;-68
2022/10/05 06:33:04;;;;;;;15.47;9.90;;;6.10;99.90;;;;;;8375592;28;20623;-68
2022/10/05 06:37:12;;;;;;;15.63;10.63;;;6.30;99.90;;;;;;8374907;28;20189;-68
2022/10/05 06:41:30;;;;;;;9.73;7.77;;;6.50;99.90;;;;;;8377371;28;20220;-69
2022/10/05 06:45:40;;;;;;;10.67;7.90;;;6.60;99.90;;;;;;8388624;28;20224;-67
2022/10/05 06:49:48;;;;;;;10.80;8.23;;;6.80;99.90;;;;;;8374417;28;20193;-67
2022/10/05 06:54:13;;;;;;;16.47;10.10;;;6.90;99.90;;;;;;8370986;28;20189;-67
2022/10/05 06:58:17;;;;;;;11.03;7.57;;;7.10;99.90;;;;;;8375027;28;20209;-68
2022/10/05 07:02:23;;;;;;;9.43;7.53;;;7.50;99.90;;;;;;8370455;28;20221;-68
2022/10/05 07:06:24;;;;;;;7.20;5.80;;;7.90;99.90;;;;;;8372232;28;20502;-68
2022/10/05 07:10:24;;;;;;;9.23;6.20;;;8.40;99.90;;;;;;8376462;28;20189;-68
2022/10/05 07:14:51;;;;;;;5.87;4.87;;;8.90;99.90;;;;;;8374158;28;20225;-68
2022/10/05 07:19:04;;;;;;;6.27;4.87;;;9.40;99.90;;;;;;8373882;28;20213;-68
2022/10/05 07:23:23;;;;;;;8.40;4.90;;;9.90;99.90;;;;;;8377101;28;20253;-68
2022/10/05 07:27:29;;;;;;;5.10;4.10;;;10.20;99.90;;;;;;8371924;28;20202;-69
2022/10/05 07:31:39;;;;;;;6.43;5.07;;;10.40;99.90;;;;;;8372620;28;20535;-68
2022/10/05 07:40:46;;;;;;;6.33;3.70;;;11.00;99.90;;;;;;8375189;28;20246;-68
2022/10/05 07:45:01;;;;;;;8.87;2.90;;;11.40;99.90;;;;;;8367206;28;20212;-68
2022/10/05 07:49:04;;;;;;;2.40;2.13;;;11.90;99.90;;;;;;8375491;28;20185;-69
2022/10/05 07:53:21;;;;;;;4.47;2.10;;;12.30;99.90;;;;;;8372223;28;20239;-68
2022/10/05 07:57:59;;;;;;;2.90;1.47;;;12.80;99.90;;;;;;8373266;28;20215;-69
2022/10/05 08:02:30;;;;;;;3.17;2.17;;;13.20;99.90;;;;;;8377604;28;20232;-68
2022/10/05 08:06:39;;;;;;;3.37;1.60;;;13.60;99.90;;;;;;8364633;28;20195;-68
2022/10/05 08:10:54;;;;;;;2.33;1.00;;;13.90;99.90;;;;;;8376139;28;20185;-68
2022/10/05 08:15:01;;;;;;;4.00;1.37;;;14.20;99.90;;;;;;8373359;28;20177;-69
2022/10/05 08:19:19;;;;;;;3.50;1.20;;;14.30;99.90;;;;;;8367572;28;20181;-69
2022/10/05 08:23:37;;;;;;;2.43;1.43;;;14.40;99.90;;;;;;8374127;28;20231;-69
2022/10/05 08:28:01;;;;;;;2.47;1.40;;;14.60;99.90;;;;;;8373801;28;20262;-68
2022/10/05 08:32:09;;;;;;;3.50;1.37;;;14.80;99.90;;;;;;8369939;28;20308;-69
2022/10/05 08:36:13;;;;;;;1.30;1.20;;;15.20;99.90;;;;;;8376778;28;20208;-69
2022/10/05 08:40:32;;;;;;;1.80;1.20;;;15.50;99.90;;;;;;8375284;28;20166;-69
2022/10/05 08:45:01;;;;;;;4.70;1.37;;;15.90;1.00;;;;;;8374029;28;20204;-70
2022/10/05 08:49:47;;;;;;;2.30;1.13;;;16.20;1.00;;;;;;8373634;28;20181;-69
2022/10/05 08:53:51;;;;;;;2.57;1.30;;;16.50;99.90;;;;;;8355481;28;20259;-69
2022/10/05 08:58:16;;;;;;;2.13;1.20;;;16.60;99.90;;;;;;8372851;28;20211;-69
2022/10/05 09:02:30;;;;;;;2.07;0.90;;;16.70;99.90;;;;;;8366112;28;20747;-70
2022/10/05 09:06:43;;;;;;;2.33;0.97;;;16.90;99.90;;;;;;8375080;28;20177;-70
2022/10/05 09:11:02;;;;;;;2.10;1.20;;;16.90;99.90;;;;;;8375966;28;20190;-70
2022/10/05 09:15:34;;;;;;;1.53;0.80;;;17.10;99.90;;;;;;8378295;28;20282;-70
2022/10/05 09:20:14;;;;;;;3.63;1.23;;;17.30;99.90;;;;;;8378710;28;20294;-68
2022/10/05 09:24:27;;;;;;;2.47;1.27;;;17.40;99.90;;;;;;8380197;28;20276;-70
2022/10/05 09:28:43;;;;;;;2.03;1.17;;;17.60;99.90;;;;;;8376920;28;20200;-69
2022/10/05 09:32:56;;;;;;;2.53;1.00;;;17.80;99.90;;;;;;8379604;28;20296;-71
2022/10/05 09:37:25;;;;;;;4.60;1.20;;;18.00;99.90;;;;;;8377460;28;20446;-68
2022/10/05 09:41:50;;;;;;;2.10;1.10;;;18.10;99.90;;;;;;8372123;28;20215;-69
2022/10/05 09:46:09;;;;;;;2.40;1.00;;;18.20;99.90;;;;;;8371785;28;20181;-69
2022/10/05 09:50:47;;;;;;;2.30;0.97;;;18.40;99.90;;;;;;8380852;28;20223;-68
2022/10/05 09:55:10;;;;;;;1.47;0.90;;;18.60;99.90;;;;;;8375653;28;20193;-69
2022/10/05 09:59:50;;;;;;;1.23;0.73;;;18.80;99.90;;;;;;8378173;28;20215;-69
2022/10/05 10:04:15;;;;;;;2.80;0.73;;;19.10;99.90;;;;;;8378345;28;20193;-68
2022/10/05 10:09:13;;;;;;;0.97;0.70;;;19.40;99.90;;;;;;8377469;28;20312;-69
2022/10/05 10:13:44;;;;;;;1.43;0.80;;;19.70;50.00;;;;;;8341277;28;20219;-70
2022/10/05 10:18:09;;;;;;;1.87;0.90;;;19.70;32.40;;;;;;8364580;28;20185;-69
2022/10/05 10:22:13;;;;;;;1.73;0.87;;;19.60;29.00;;;;;;8376104;28;20189;-68
2022/10/05 10:26:54;;;;;;;3.23;0.97;;;19.40;29.10;;;;;;8378878;28;20185;-69
2022/10/05 10:30:58;;;;;;;1.53;0.87;;;19.50;25.60;;;;;;8376037;28;20181;-70
2022/10/05 10:35:31;;;;;;;1.07;0.63;;;19.60;22.60;;;;;;8375960;28;20548;-69
2022/10/05 10:39:52;;;;;;;1.93;0.80;;;19.60;15.60;;;;;;8376285;28;20187;-69
2022/10/05 10:44:16;;;;;;;0.93;0.80;;;19.50;8.50;;;;;;8375814;28;20189;-69
2022/10/05 10:48:29;;;;;;;2.77;0.90;;;19.40;28.50;;;;;;8378879;28;20185;-69
2022/10/05 10:53:01;;;;;;;1.80;0.90;;;19.40;1.00;;;;;;8376612;28;20216;-69
2022/10/05 10:57:14;;;;;;;2.63;0.87;;;19.50;1.00;;;;;;8367393;28;20201;-70
2022/10/05 11:01:53;;;;;;;3.20;0.90;;;19.60;1.00;;;;;;8374381;28;20208;-69
2022/10/05 11:06:52;;;;;;;2.77;0.70;;;20.00;1.00;;;;;;8366826;28;20221;-70
2022/10/05 11:10:56;;;;;;;3.07;0.80;;;20.30;1.00;;;;;;8323375;28;20624;-69
2022/10/05 11:15:15;;;;;;;1.60;0.87;;;20.20;1.00;;;;;;8358196;28;20305;-70
2022/10/05 11:19:32;;;;;;;1.73;1.00;;;20.20;1.00;;;;;;8372951;28;20177;-69
2022/10/05 11:24:05;;;;;;;1.80;1.00;;;20.20;1.00;;;;;;8376100;28;20185;-69
2022/10/05 11:28:17;;;;;;;3.50;1.00;;;20.30;1.00;;;;;;8377584;28;20200;-68
2022/10/05 11:32:28;;;;;;;2.77;1.07;;;20.30;1.00;;;;;;8372257;28;20209;-68
2022/10/05 11:37:00;;;;;;;2.00;1.10;;;20.30;1.00;;;;;;8370958;28;20189;-69
2022/10/05 11:41:09;;;;;;;2.67;1.00;;;20.40;1.00;;;;;;8374470;28;20181;-69
2022/10/05 11:45:48;;;;;;;1.37;0.70;;;20.40;1.00;;;;;;8372675;28;20177;-68
2022/10/05 11:50:10;;;;;;;2.33;1.00;;;20.50;1.00;;;;;;8372719;28;20208;-68
2022/10/05 11:54:32;;;;;;;1.93;0.87;;;20.40;1.00;;;;;;8375361;28;20482;-69
2022/10/05 11:58:49;;;;;;;3.27;1.00;;;20.40;1.00;;;;;;8369252;28;20201;-69
2022/10/05 12:03:11;;;;;;;1.90;0.90;;;20.50;1.00;;;;;;8371620;28;20610;-69
2022/10/05 12:07:50;;;;;;;4.03;1.00;;;20.60;1.00;;;;;;8373412;28;20184;-69
2022/10/05 12:12:00;;;;;;;1.63;1.10;;;20.70;1.00;;;;;;8363145;28;20242;-68
2022/10/05 12:16:37;;;;;;;1.83;0.97;;;20.70;1.00;;;;;;8368194;28;20177;-68
2022/10/05 12:20:55;;;;;;;2.23;0.77;;;20.90;1.00;;;;;;8368648;28;20350;-69
2022/10/05 12:25:16;;;;;;;1.17;0.77;;;21.00;1.00;;;;;;8372030;28;20185;-69
2022/10/05 12:29:25;;;;;;;1.80;0.90;;;21.10;1.00;;;;;;8364310;28;20181;-69
2022/10/05 12:33:39;;;;;;;1.93;1.00;;;21.20;1.00;;;;;;8370310;28;20206;-69
2022/10/05 12:37:52;;;;;;;0.90;0.70;;;21.40;1.00;;;;;;8366918;28;20251;-68
2022/10/05 12:41:59;;;;;;;2.60;0.70;;;21.30;1.00;;;;;;8363393;28;20657;-68
2022/10/05 12:46:07;;;;;;;2.73;0.80;;;21.10;1.00;;;;;;8378387;28;20395;-67
2022/10/05 12:50:23;;;;;;;2.13;0.90;;;21.10;1.00;;;;;;8381900;28;20197;-69
2022/10/05 12:54:30;;;;;;;1.63;0.60;;;21.10;1.00;;;;;;8373845;28;20209;-69
2022/10/05 12:59:08;;;;;;;1.67;0.80;;;20.90;1.00;;;;;;8375899;28;20550;-70
2022/10/05 13:03:36;;;;;;;1.67;0.70;;;20.90;1.00;;;;;;8376789;28;20186;-68
2022/10/05 13:07:52;;;;;;;1.37;0.80;;;21.00;1.00;;;;;;8376544;28;20192;-69
2022/10/05 13:11:59;;;;;;;2.00;0.80;;;21.20;1.00;;;;;;8370084;28;20213;-71
2022/10/05 13:16:03;;;;;;;3.60;1.03;;;21.40;1.00;;;;;;8379292;28;20192;-68
2022/10/05 13:20:23;;;;;;;1.30;0.73;;;21.40;1.00;;;;;;8374879;28;20189;-68
2022/10/05 13:24:54;;;;;;;1.67;0.90;;;21.40;1.00;;;;;;8374448;28;20207;-68
2022/10/05 13:29:27;;;;;;;1.00;0.80;;;21.50;1.00;;;;;;8376023;28;20182;-69
2022/10/05 13:33:59;;;;;;;2.37;0.80;;;21.50;1.00;;;;;;8372700;28;20216;-69
2022/10/05 13:38:24;;;;;;;1.73;0.90;;;21.70;1.00;;;;;;8373736;28;20193;-69
2022/10/05 13:42:47;;;;;;;1.37;0.90;;;21.80;1.00;;;;;;8376669;28;20196;-69
2022/10/05 13:46:49;;;;;;;1.63;0.80;;;22.00;1.00;;;;;;8372000;28;20573;-69
2022/10/05 13:51:13;;;;;;;1.50;0.80;;;22.10;1.00;;;;;;8375337;28;20201;-69
2022/10/05 13:55:20;;;;;;;1.87;0.80;;;21.90;1.00;;;;;;8372206;28;20248;-68
2022/10/05 13:59:40;;;;;;;1.47;0.53;;;21.80;1.00;;;;;;8368142;28;20210;-68
2022/10/05 14:04:03;;;;;;;1.53;0.70;;;21.50;1.00;;;;;;8375331;28;20205;-68
2022/10/05 14:08:03;;;;;;;1.23;0.73;;;21.20;1.00;;;;;;8376608;28;20204;-69
2022/10/05 14:12:10;;;;;;;3.47;0.80;;;21.00;1.00;;;;;;8375325;28;20234;-69
2022/10/05 14:16:11;;;;;;;0.70;0.60;;;20.80;1.00;;;;;;8375399;28;20188;-68
2022/10/05 14:20:22;;;;;;;2.03;0.80;;;20.60;1.00;;;;;;8373438;28;20213;-68
2022/10/05 14:24:33;;;;;;;0.63;0.50;;;20.70;1.00;;;;;;8372003;28;20288;-68
2022/10/05 14:28:37;;;;;;;1.23;0.63;;;20.70;1.00;;;;;;8370742;28;20351;-68
2022/10/05 14:33:01;;;;;;;2.70;1.00;;;20.70;1.00;;;;;;8376674;28;20262;-68
2022/10/05 14:37:24;;;;;;;1.20;0.77;;;20.50;1.00;;;;;;8372991;28;20527;-68
2022/10/05 14:41:26;;;;;;;1.30;0.70;;;20.40;1.00;;;;;;8378344;28;20494;-68
2022/10/05 14:45:32;;;;;;;2.67;0.90;;;20.40;1.00;;;;;;8371429;28;20196;-68
2022/10/05 14:49:37;;;;;;;1.27;0.80;;;20.40;1.00;;;;;;8374557;28;20201;-69
2022/10/05 14:53:37;;;;;;;2.50;0.83;;;20.40;1.00;;;;;;8376909;28;20304;-68
2022/10/05 14:57:41;;;;;;;4.20;0.90;;;20.40;1.00;;;;;;8372580;28;20213;-68
2022/10/05 15:01:53;;;;;;;3.10;1.00;;;20.30;1.00;;;;;;8377249;28;20225;-68
2022/10/05 15:05:58;;;;;;;3.10;0.87;;;20.20;1.00;;;;;;8374164;28;20186;-68
2022/10/05 15:10:14;;;;;;;3.87;1.20;;;20.20;1.00;;;;;;8374881;28;20194;-68
2022/10/05 15:14:21;;;;;;;2.37;1.40;;;20.10;1.00;;;;;;8374232;28;20358;-68
2022/10/05 15:18:47;;;;;;;3.17;1.03;;;19.90;1.00;;;;;;8372649;28;20230;-68
2022/10/05 15:23:10;;;;;;;2.90;1.30;;;19.60;29.90;;;;;;8374461;28;20173;-68
2022/10/05 15:27:22;;;;;;;2.43;0.83;;;19.30;54.80;;;;;;8372055;28;20217;-69
2022/10/05 15:31:36;;;;;;;1.37;0.80;;;19.00;66.80;;;;;;8371059;28;20206;-70
2022/10/05 15:35:54;;;;;;;1.27;1.00;;;18.70;71.80;;;;;;8371957;28;20219;-68
2022/10/05 15:39:58;;;;;;;3.03;1.73;;;18.50;65.70;;;;;;8372561;28;20177;-68
2022/10/05 15:44:37;;;;;;;1.50;1.00;;;18.30;82.40;;;;;;8375368;28;20195;-68
2022/10/05 15:48:51;;;;;;;1.70;0.97;;;18.00;60.10;;;;;;8364634;28;20203;-67
2022/10/05 15:53:21;;;;;;;1.37;1.00;;;17.80;59.70;;;;;;8375108;28;20236;-67
2022/10/05 15:57:37;;;;;;;1.37;0.97;;;17.50;76.30;;;;;;8355620;28;20230;-68
2022/10/05 16:01:48;;;;;;;2.03;1.00;;;17.20;93.90;;;;;;8376731;28;20201;-68
2022/10/05 16:10:40;;;;;;;2.40;1.40;;;16.70;99.90;;;;;;8376310;28;20207;-67
2022/10/05 16:14:55;;;;;;;2.07;1.30;;;16.50;99.90;;;;;;8373926;28;20209;-67
2022/10/05 16:19:28;;;;;;;1.77;1.20;;;16.30;99.90;;;;;;8373418;28;20262;-68
2022/10/05 16:23:40;;;;;;;1.13;1.03;;;16.00;99.90;;;;;;8378780;28;20224;-68
2022/10/05 16:28:02;;;;;;;1.87;1.37;;;15.90;99.90;;;;;;8379437;28;20281;-67
2022/10/05 16:32:19;;;;;;;2.03;1.57;;;15.70;99.90;;;;;;8378499;28;20519;-68
2022/10/05 16:36:58;;;;;;;2.57;1.43;;;15.50;99.90;;;;;;8373518;28;20181;-68
2022/10/05 16:41:13;;;;;;;1.53;1.30;;;15.30;99.90;;;;;;8377819;28;20190;-67
2022/10/05 16:45:42;;;;;;;1.83;1.37;;;15.10;99.90;;;;;;8381184;28;20201;-68
2022/10/05 16:49:56;;;;;;;1.50;1.10;;;14.90;99.90;;;;;;8380388;28;20183;-67
2022/10/05 16:54:08;;;;;;;1.60;1.23;;;14.60;99.90;;;;;;8375380;28;20223;-67
2022/10/05 16:58:30;;;;;;;2.57;1.43;;;14.40;99.90;;;;;;8376736;28;20209;-67
2022/10/05 17:02:40;;;;;;;2.90;2.10;;;14.00;99.90;;;;;;8376016;28;20204;-67
2022/10/05 17:06:55;;;;;;;3.60;2.23;;;13.80;1.00;;;;;;8376198;28;20192;-67
2022/10/05 17:11:15;;;;;;;3.53;2.40;;;13.60;1.00;;;;;;8376410;28;20177;-67
2022/10/05 17:15:31;;;;;;;4.83;2.70;;;13.40;1.00;;;;;;8372660;28;20186;-67
2022/10/05 17:20:11;;;;;;;2.90;2.23;;;13.20;1.00;;;;;;8379831;28;20200;-67
2022/10/05 17:24:31;;;;;;;2.67;1.90;;;13.10;1.00;;;;;;8370852;28;20189;-67
2022/10/05 17:29:08;;;;;;;3.23;2.33;;;13.00;1.00;;;;;;8377755;28;20262;-68
2022/10/05 17:33:21;;;;;;;2.93;1.70;;;12.90;1.00;;;;;;8378773;28;20299;-69
2022/10/05 17:37:37;;;;;;;3.87;2.30;;;12.80;1.00;;;;;;8377739;28;20190;-68
2022/10/05 17:41:38;;;;;;;2.60;1.87;;;12.60;1.00;;;;;;8375484;28;20238;-68
2022/10/05 17:45:42;;;;;;;3.60;2.00;;;12.60;1.00;;;;;;8374102;28;20492;-68
2022/10/05 17:49:46;;;;;;;3.20;2.40;;;12.50;1.00;;;;;;8377805;28;20185;-68
2022/10/05 17:58:24;;;;;;;2.37;1.90;;;12.40;4.30;;;;;;8372619;28;20209;-68
2022/10/05 18:02:31;;;;;;;2.73;1.87;;;12.40;14.00;;;;;;8373580;28;20201;-68
2022/10/05 18:06:36;;;;;;;3.80;2.17;;;12.30;20.00;;;;;;8375182;28;20257;-68
2022/10/05 18:11:15;;;;;;;3.07;2.43;;;12.20;54.00;;;;;;8376386;28;20189;-68
2022/10/05 18:15:22;;;;;;;5.50;2.60;;;12.20;81.40;;;;;;8347363;28;20197;-67
2022/10/05 18:19:24;;;;;;;3.23;2.77;;;12.20;94.80;;;;;;8375680;28;20221;-68
2022/10/05 18:23:29;;;;;;;3.70;2.63;;;12.20;99.30;;;;;;8373780;28;20181;-67
2022/10/05 18:28:02;;;;;;;4.10;2.77;;;12.10;99.90;;;;;;8372422;28;20492;-68
2022/10/05 18:32:27;;;;;;;2.73;2.47;;;12.10;99.90;;;;;;8371065;28;20209;-68
2022/10/05 18:37:00;;;;;;;3.87;2.67;;;12.00;99.90;;;;;;8369354;28;20272;-68
2022/10/05 18:41:12;;;;;;;5.70;2.13;;;11.90;99.90;;;;;;8371336;28;20203;-68
2022/10/05 18:45:47;;;;;;;3.10;2.30;;;11.70;99.90;;;;;;8373883;28;20443;-68
2022/10/05 18:50:17;;;;;;;3.63;2.50;;;11.70;99.90;;;;;;8371605;28;20273;-68
2022/10/05 18:54:39;;;;;;;4.60;2.67;;;11.60;99.90;;;;;;8372561;28;20498;-74
2022/10/05 18:59:07;;;;;;;3.13;2.50;;;11.50;99.90;;;;;;8376036;28;20204;-69
2022/10/05 19:03:38;;;;;;;2.77;2.30;;;11.40;99.90;;;;;;8374254;28;20200;-68
2022/10/05 19:07:51;;;;;;;3.17;2.70;;;11.20;1.00;;;;;;8373466;28;20186;-68
2022/10/05 19:11:52;;;;;;;3.60;2.27;;;11.00;1.00;;;;;;8375101;28;20289;-68
2022/10/05 19:16:04;;;;;;;3.30;2.57;;;10.90;97.30;;;;;;8375465;28;20185;-68
2022/10/05 19:20:16;;;;;;;3.57;2.73;;;10.80;99.90;;;;;;8372623;28;20193;-68
2022/10/05 19:24:48;;;;;;;2.63;2.30;;;10.70;99.90;;;;;;8376611;28;20242;-68
2022/10/05 19:29:02;;;;;;;4.93;2.80;;;10.60;1.00;;;;;;8375549;28;20191;-68
2022/10/05 19:33:24;;;;;;;4.50;3.00;;;10.40;99.90;;;;;;8375208;28;20240;-68
2022/10/05 19:37:37;;;;;;;4.77;2.80;;;10.40;1.00;;;;;;8377708;28;20203;-68
2022/10/05 19:41:54;;;;;;;15.17;4.37;;;10.30;53.90;;;;;;8376936;28;20196;-68
2022/10/05 19:46:20;;;;;;;6.40;4.77;;;10.30;1.00;;;;;;8373032;28;20195;-68
2022/10/05 19:50:28;;;;;;;7.33;4.07;;;10.20;1.00;;;;;;8375272;28;20254;-68
2022/10/05 19:54:30;;;;;;;5.80;3.77;;;10.10;1.00;;;;;;8374217;28;20217;-68
2022/10/05 19:58:38;;;;;;;5.03;3.93;;;10.10;99.90;;;;;;8371906;28;20212;-68
2022/10/05 20:02:39;;;;;;;4.43;2.60;;;10.20;99.90;;;;;;8375203;28;20208;-68
2022/10/05 20:06:41;;;;;;;5.03;2.80;;;10.30;1.00;;;;;;8373111;28;20212;-68
2022/10/05 20:10:43;;;;;;;5.30;3.67;;;10.40;99.90;;;;;;8375507;28;20263;-68
2022/10/05 20:23:44;;;;;;;8.67;4.90;;;10.40;1.00;;;;;;8375887;28;20289;-68
2022/10/05 20:27:56;;;;;;;7.07;4.77;;;10.40;99.90;;;;;;8371661;28;20191;-68
2022/10/05 20:31:57;;;;;;;6.03;4.30;;;10.30;1.00;;;;;;8366498;28;20214;-70
2022/10/05 20:35:58;;;;;;;6.60;4.50;;;10.20;99.90;;;;;;8371428;28;20183;-68
2022/10/05 20:39:59;;;;;;;5.50;4.17;;;10.30;53.20;;;;;;8374203;28;20605;-68
2022/10/05 20:43:59;;;;;;;4.93;4.07;;;10.30;43.30;;;;;;8368458;28;20192;-68
2022/10/05 20:48:02;;;;;;;5.50;3.70;;;10.40;1.00;;;;;;8374302;28;20251;-68
2022/10/05 20:52:04;;;;;;;4.40;3.73;;;10.60;99.90;;;;;;8375946;28;20489;-68
2022/10/05 20:56:05;;;;;;;6.00;3.73;;;10.80;99.90;;;;;;8369700;28;20208;-68
2022/10/05 21:00:07;;;;;;;4.43;3.47;;;11.00;1.00;;;;;;8376876;28;20350;-68
2022/10/05 21:04:08;;;;;;;6.00;3.97;;;11.20;99.90;;;;;;8375821;28;20201;-68
2022/10/05 21:08:09;;;;;;;6.83;3.70;;;11.40;99.90;;;;;;8382634;28;20187;-67
2022/10/05 21:12:10;;;;;;;7.60;3.17;;;11.70;42.00;;;;;;8382113;28;20213;-68
2022/10/05 21:16:12;;;;;;;6.07;3.30;;;11.90;99.90;;;;;;8383181;28;20209;-69
2022/10/05 21:20:13;;;;;;;3.83;2.60;;;12.10;99.90;;;;;;8382619;28;20193;-68
2022/10/05 21:24:14;;;;;;;5.60;2.90;;;12.20;1.00;;;;;;8382399;28;20190;-68
2022/10/05 21:28:15;;;;;;;3.20;2.50;;;12.30;1.00;;;;;;8383273;28;20264;-68
2022/10/05 21:32:16;;;;;;;3.90;3.03;;;12.40;99.90;;;;;;8380834;28;20209;-68
2022/10/05 21:36:19;;;;;;;6.17;2.87;;;12.40;99.90;;;;;;8388829;28;20186;-68
2022/10/05 21:40:19;;;;;;;5.17;2.50;;;12.50;99.90;;;;;;8382521;28;20264;-68
2022/10/05 21:44:20;;;;;;;3.27;2.47;;;12.60;95.20;;;;;;8381442;28;20197;-68
2022/10/05 21:48:22;;;;;;;3.87;2.70;;;12.70;1.00;;;;;;8382199;28;20193;-68
2022/10/05 21:52:23;;;;;;;2.77;2.00;;;12.80;1.00;;;;;;8380015;28;20216;-69
2022/10/05 21:56:28;;;;;;;4.20;2.37;;;12.80;1.00;;;;;;8381767;28;20203;-68
2022/10/05 22:00:29;;;;;;;3.07;2.70;;;12.80;1.00;;;;;;8380381;28;20181;-68
2022/10/05 22:04:30;;;;;;;3.90;2.53;;;12.80;1.00;;;;;;8378860;28;20185;-68
2022/10/05 22:08:32;;;;;;;2.97;2.40;;;13.00;99.90;;;;;;8389789;28;20357;-68
2022/10/05 22:12:33;;;;;;;5.80;2.70;;;13.10;99.90;;;;;;8379204;28;20301;-68
2022/10/05 22:16:36;;;;;;;3.97;2.33;;;13.20;99.90;;;;;;8379771;28;20195;-69
2022/10/05 22:20:37;;;;;;;5.43;2.67;;;13.30;99.90;;;;;;8382454;28;20173;-69
2022/10/05 22:24:38;;;;;;;2.50;2.30;;;13.30;99.90;;;;;;8382829;28;20292;-68
2022/10/05 22:28:39;;;;;;;3.43;2.30;;;13.40;99.90;;;;;;8381529;28;20196;-68
2022/10/05 22:32:44;;;;;;;6.27;2.33;;;13.40;99.90;;;;;;8381008;28;20251;-68
2022/10/05 22:36:46;;;;;;;2.90;2.33;;;13.40;99.90;;;;;;8378247;28;20182;-68